Time;durP1;ratioP1;P1;durP2;ratioP2;P2;SDS_P1;SDS_P2;PMS_P1;PMS_P2;Temp;Humidity;BMP_temperature;BMP_pressure;BME280_temperature;BME280_humidity;BME280_pressure;Samples;Min_cycle;Max_cycle;Signal;HPM_P1;HPM_P2
2024/01/31 00:01:09;;;;;;;;;;;;;;;12.38;53.72;102278.63;6033606;23;6934;-73
2024/01/31 00:03:35;;;;;;;;;;;;;;;12.39;54.14;102283.00;6032695;23;6855;-74
2024/01/31 00:06:02;;;;;;;;;;;;;;;12.37;54.08;102279.44;6034732;23;7057;-74
2024/01/31 00:08:28;;;;;;;;;;;;;;;12.33;53.43;102283.44;6032358;23;6930;-73
2024/01/31 00:10:53;;;;;;;;;;;;;;;12.30;53.66;102282.34;6010800;23;7248;-74
2024/01/31 00:13:19;;;;;;;;;;;;;;;12.25;54.47;102283.72;6032680;23;6763;-72
2024/01/31 00:15:45;;;;;;;;;;;;;;;12.20;54.44;102280.81;6012291;23;6767;-73
2024/01/31 00:18:10;;;;;;;;;;;;;;;12.20;53.96;102278.25;6034518;23;7370;-74
2024/01/31 00:20:36;;;;;;;;;;;;;;;12.18;54.42;102279.81;6035133;23;6906;-74
2024/01/31 00:23:02;;;;;;;;;;;;;;;12.17;54.16;102280.59;6009712;23;6946;-73
2024/01/31 00:25:27;;;;;;;;;;;;;;;12.17;54.03;102280.59;6035584;23;6759;-73
2024/01/31 00:27:53;;;;;;;;;;;;;;;12.14;54.19;102285.50;6035394;23;6827;-74
2024/01/31 00:30:18;;;;;;;;;;;;;;;12.12;54.74;102284.50;6011851;23;7212;-74
2024/01/31 00:32:44;;;;;;;;;;;;;;;12.11;55.22;102282.72;6033861;23;6942;-73
2024/01/31 00:35:10;;;;;;;;;;;;;;;12.09;54.88;102282.59;6012585;23;6830;-72
2024/01/31 00:37:35;;;;;;;;;;;;;;;12.05;55.25;102276.34;6010144;23;8502;-73
2024/01/31 00:40:01;;;;;;;;;;;;;;;12.04;54.85;102281.38;6012804;23;7034;-73
2024/01/31 00:42:26;;;;;;;;;;;;;;;12.00;54.88;102287.94;6011932;23;6951;-74
2024/01/31 00:44:52;;;;;;;;;;;;;;;12.00;55.54;102276.75;6032898;23;6974;-72
2024/01/31 00:47:18;;;;;;;;;;;;;;;11.99;55.50;102281.03;6033241;23;6934;-74
2024/01/31 00:49:43;;;;;;;;;;;;;;;12.00;55.18;102287.94;6033550;23;6958;-73
2024/01/31 00:52:09;;;;;;;;;;;;;;;11.98;55.15;102284.38;6008606;23;6763;-72
2024/01/31 00:54:35;;;;;;;;;;;;;;;11.98;55.61;102284.38;6011045;23;6835;-75
2024/01/31 00:57:01;;;;;;;;;;;;;;;11.97;55.25;102290.28;6032911;23;7599;-73
2024/01/31 00:59:26;;;;;;;;;;;;;;;11.95;55.59;102291.84;6032626;23;6946;-74
2024/01/31 01:01:52;;;;;;;;;;;;;;;11.95;56.11;102291.84;6030756;23;6751;-73
2024/01/31 01:04:18;;;;;;;;;;;;;;;11.93;55.40;102296.91;6031797;23;7001;-74
2024/01/31 01:06:43;;;;;;;;;;;;;;;11.92;55.72;102296.78;6031280;23;6775;-75
2024/01/31 01:09:09;;;;;;;;;;;;;;;11.89;56.02;102294.00;6033011;23;6771;-75
2024/01/31 01:11:35;;;;;;;;;;;;;;;11.89;55.88;102302.56;6032748;23;6943;-73
2024/01/31 01:14:01;;;;;;;;;;;;;;;11.86;55.86;102302.34;6032882;23;7011;-73
2024/01/31 01:16:26;;;;;;;;;;;;;;;11.87;56.15;102316.09;6032497;23;8819;-73
2024/01/31 01:18:52;;;;;;;;;;;;;;;11.86;56.80;102314.28;6008678;23;6959;-74
2024/01/31 01:21:17;;;;;;;;;;;;;;;11.87;56.14;102321.22;6032984;23;6927;-73
2024/01/31 01:23:43;;;;;;;;;;;;;;;11.86;56.25;102315.22;6033257;23;6763;-73
2024/01/31 01:26:08;;;;;;;;;;;;;;;11.86;56.16;102309.16;6032174;23;6879;-72
2024/01/31 01:28:34;;;;;;;;;;;;;;;11.83;56.71;102303.81;6032307;23;6755;-74
2024/01/31 01:31:00;;;;;;;;;;;;;;;11.82;56.35;102302.91;6029252;23;6944;-75
2024/01/31 01:33:26;;;;;;;;;;;;;;;11.80;56.21;102310.50;6026492;23;7011;-73
2024/01/31 01:35:52;;;;;;;;;;;;;;;11.80;56.80;102313.09;6008326;23;6779;-75
2024/01/31 01:38:18;;;;;;;;;;;;;;;11.78;57.15;102312.09;6009107;23;6760;-75
2024/01/31 01:40:45;;;;;;;;;;;;;;;11.75;57.04;102301.56;6033240;23;6949;-75
2024/01/31 01:43:18;;;;;;;;;;;;;;;11.74;56.62;102315.19;6030145;23;7153;-75
2024/01/31 01:45:44;;;;;;;;;;;;;;;11.73;56.63;102315.06;6006908;23;6962;-75
2024/01/31 01:48:13;;;;;;;;;;;;;;;11.71;56.88;102330.38;6030040;23;6968;-75
2024/01/31 01:50:40;;;;;;;;;;;;;;;11.69;56.67;102324.25;6028562;23;7175;-75
2024/01/31 01:53:07;;;;;;;;;;;;;;;11.67;57.11;102323.22;6029510;23;6843;-76
2024/01/31 01:55:35;;;;;;;;;;;;;;;11.62;57.52;102320.28;6030173;23;6966;-76
2024/01/31 01:58:01;;;;;;;;;;;;;;;11.60;56.88;102324.44;6007682;23;7101;-76
2024/01/31 02:00:28;;;;;;;;;;;;;;;11.60;57.71;102327.00;6006335;23;7032;-76
2024/01/31 02:02:54;;;;;;;;;;;;;;;11.59;57.48;102329.44;6031443;23;6775;-75
2024/01/31 02:05:20;;;;;;;;;;;;;;;11.59;57.65;102324.31;6027949;23;8865;-75
2024/01/31 02:07:46;;;;;;;;;;;;;;;11.58;57.57;102327.66;6027154;23;6767;-75
2024/01/31 02:10:11;;;;;;;;;;;;;;;11.58;57.17;102330.22;6027645;23;7783;-75
2024/01/31 02:12:37;;;;;;;;;;;;;;;11.57;57.25;102331.00;6026507;23;7424;-75
2024/01/31 02:15:03;;;;;;;;;;;;;;;11.56;57.08;102327.56;6003698;23;6937;-75
2024/01/31 02:17:30;;;;;;;;;;;;;;;11.55;57.48;102328.34;6005802;23;6984;-76
2024/01/31 02:19:55;;;;;;;;;;;;;;;11.52;57.75;102331.56;6029026;23;7150;-75
2024/01/31 02:22:21;;;;;;;;;;;;;;;11.51;58.02;102327.22;6028992;23;6934;-75
2024/01/31 02:24:47;;;;;;;;;;;;;;;11.49;58.07;102327.88;6029869;23;6931;-75
2024/01/31 02:27:12;;;;;;;;;;;;;;;11.47;57.41;102325.19;6029163;23;7423;-76
2024/01/31 02:29:38;;;;;;;;;;;;;;;11.45;58.15;102331.00;6028996;23;7021;-76
2024/01/31 02:32:06;;;;;;;;;;;;;;;11.45;58.13;102331.00;6025539;23;6939;-75
2024/01/31 02:34:32;;;;;;;;;;;;;;;11.46;58.37;102335.38;6028155;23;6931;-76
2024/01/31 02:36:58;;;;;;;;;;;;;;;11.43;58.16;102327.41;6004725;23;6916;-77
2024/01/31 02:39:24;;;;;;;;;;;;;;;11.42;57.78;102330.75;6027773;23;6990;-76
2024/01/31 02:41:52;;;;;;;;;;;;;;;11.41;57.93;102329.88;6006627;23;6943;-75
2024/01/31 02:44:18;;;;;;;;;;;;;;;11.41;58.72;102323.84;6003879;23;6950;-75
2024/01/31 02:46:44;;;;;;;;;;;;;;;11.40;58.52;102328.09;6028347;23;6776;-74
2024/01/31 02:49:10;;;;;;;;;;;;;;;11.39;58.27;102328.84;6031257;23;6949;-75
2024/01/31 02:51:36;;;;;;;;;;;;;;;11.40;58.30;102333.22;6032800;23;6754;-75
2024/01/31 02:54:01;;;;;;;;;;;;;;;11.41;58.74;102334.09;6054933;23;6923;-74
2024/01/31 02:56:27;;;;;;;;;;;;;;;11.43;58.74;102332.53;6056190;23;6755;-75
2024/01/31 02:58:53;;;;;;;;;;;;;;;11.43;58.54;102329.97;6054968;23;6747;-75
2024/01/31 03:01:18;;;;;;;;;;;;;;;11.44;58.56;102330.09;6053777;23;7245;-75
2024/01/31 03:03:44;;;;;;;;;;;;;;;11.46;58.44;102325.09;6055796;23;6818;-75
2024/01/31 03:06:11;;;;;;;;;;;;;;;11.48;58.39;102331.22;6055715;23;6903;-75
2024/01/31 03:08:37;;;;;;;;;;;;;;;11.50;58.44;102329.66;6055641;23;6779;-75
2024/01/31 03:11:03;;;;;;;;;;;;;;;11.51;58.37;102329.78;6032866;23;6950;-74
2024/01/31 03:13:28;;;;;;;;;;;;;;;11.53;58.32;102323.09;6055015;23;7031;-75
2024/01/31 03:15:54;;;;;;;;;;;;;;;11.53;58.43;102317.03;6055620;23;6743;-74
2024/01/31 03:18:19;;;;;;;;;;;;;;;11.53;58.90;102323.09;6055544;23;6904;-75
2024/01/31 03:20:45;;;;;;;;;;;;;;;11.53;58.27;102325.66;6055564;23;6727;-74
2024/01/31 03:23:11;;;;;;;;;;;;;;;11.54;58.57;102334.28;6054493;23;6751;-75
2024/01/31 03:25:36;;;;;;;;;;;;;;;11.52;58.42;102328.09;6056251;23;6918;-75
2024/01/31 03:28:02;;;;;;;;;;;;;;;11.50;58.62;102327.09;6055663;23;6743;-75
2024/01/31 03:30:28;;;;;;;;;;;;;;;11.47;58.55;102325.19;6031610;23;6932;-75
2024/01/31 03:32:53;;;;;;;;;;;;;;;11.44;58.15;102317.25;6055310;23;6819;-75
2024/01/31 03:35:19;;;;;;;;;;;;;;;11.41;58.49;102322.19;6053981;23;7004;-75
2024/01/31 03:37:45;;;;;;;;;;;;;;;11.39;58.40;102331.41;6054337;23;6815;-75
2024/01/31 03:40:10;;;;;;;;;;;;;;;11.37;58.59;102323.63;6031493;23;7166;-75
2024/01/31 03:42:37;;;;;;;;;;;;;;;11.38;58.57;102329.63;6031719;23;7015;-74
2024/01/31 03:45:04;;;;;;;;;;;;;;;11.38;58.98;102321.91;6055619;23;6953;-75
2024/01/31 03:47:33;;;;;;;;;;;;;;;11.37;58.82;102318.47;6032665;23;6839;-75
2024/01/31 03:49:59;;;;;;;;;;;;;;;11.34;58.86;102325.94;6055271;23;6988;-75
2024/01/31 03:52:25;;;;;;;;;;;;;;;11.31;58.40;102319.69;6031733;23;6766;-75
2024/01/31 03:54:51;;;;;;;;;;;;;;;11.29;58.89;102322.13;6056158;23;6751;-74
2024/01/31 03:57:17;;;;;;;;;;;;;;;11.30;58.99;102316.22;6054376;23;6971;-75
2024/01/31 03:59:42;;;;;;;;;;;;;;;11.34;59.15;102314.78;6056943;23;7147;-75
2024/01/31 04:02:08;;;;;;;;;;;;;;;11.38;59.25;102321.91;6053828;23;7233;-75
2024/01/31 04:04:34;;;;;;;;;;;;;;;11.42;58.80;102323.06;6032182;23;7213;-75
2024/01/31 04:06:59;;;;;;;;;;;;;;;11.46;59.16;102313.13;6054063;23;6759;-77
2024/01/31 04:09:25;;;;;;;;;;;;;;;11.51;58.76;102311.81;6054589;23;6930;-77
2024/01/31 04:11:50;;;;;;;;;;;;;;;11.55;58.71;102314.59;6031729;23;6913;-77
2024/01/31 04:14:16;;;;;;;;;;;;;;;11.56;59.14;102319.88;6053114;23;6978;-77
2024/01/31 04:16:42;;;;;;;;;;;;;;;11.53;58.66;102310.25;6029851;23;7213;-77
2024/01/31 04:21:43;;;;;;;;;;;;;;;11.41;58.46;102285.31;6018406;23;6771;-75
2024/01/31 04:24:08;;;;;;;;;;;;;;;11.40;58.94;102297.28;6086290;23;6909;-75
2024/01/31 04:26:42;;;;;;;;;;;;;;;11.35;58.75;102291.81;6063681;23;6991;-75
2024/01/31 04:29:08;;;;;;;;;;;;;;;11.34;58.41;102289.97;6110570;23;6958;-75
2024/01/31 04:31:34;;;;;;;;;;;;;;;11.34;58.41;102276.28;6061924;23;7088;-75
2024/01/31 04:34:00;;;;;;;;;;;;;;;11.32;58.30;102288.09;6059439;23;6931;-75
2024/01/31 04:36:26;;;;;;;;;;;;;;;11.28;58.58;102291.19;6059332;23;6879;-75
2024/01/31 04:38:52;;;;;;;;;;;;;;;11.23;58.27;102283.16;6059104;23;6755;-75
2024/01/31 04:41:17;;;;;;;;;;;;;;;11.19;58.36;102291.41;6058281;23;6890;-75
2024/01/31 04:43:43;;;;;;;;;;;;;;;11.17;58.36;102283.59;6056919;23;7138;-75
2024/01/31 04:51:43;;;;;;;;;;;;;;;11.08;58.58;102288.03;6054232;23;6871;-77
2024/01/31 04:54:09;;;;;;;;;;;;;;;11.09;58.65;102289.81;6081160;23;7088;-76
2024/01/31 04:56:37;;;;;;;;;;;;;;;11.06;58.65;102293.06;6057768;23;6925;-76
2024/01/31 04:59:03;;;;;;;;;;;;;;;11.05;57.98;102305.75;6057324;23;6935;-76
2024/01/31 05:01:29;;;;;;;;;;;;;;;11.05;58.36;102298.06;6058573;23;6919;-76
2024/01/31 05:03:57;;;;;;;;;;;;;;;11.08;58.10;102298.28;6059854;23;6995;-76
2024/01/31 05:06:23;;;;;;;;;;;;;;;11.09;58.44;102300.97;6060075;23;6925;-76
2024/01/31 05:08:49;;;;;;;;;;;;;;;11.09;57.99;102297.50;6060332;23;6775;-77
2024/01/31 05:11:14;;;;;;;;;;;;;;;11.10;58.41;102291.59;6036257;23;6915;-76
2024/01/31 05:13:40;;;;;;;;;;;;;;;11.13;58.65;102294.41;6059876;23;6911;-76
2024/01/31 05:16:09;;;;;;;;;;;;;;;11.17;58.34;102290.41;6059168;23;6800;-77
2024/01/31 05:18:36;;;;;;;;;;;;;;;11.21;58.02;102292.41;6040504;23;6966;-75
2024/01/31 05:21:02;;;;;;;;;;;;;;;11.20;58.16;102285.50;6036998;23;6966;-75
2024/01/31 05:23:28;;;;;;;;;;;;;;;11.18;58.41;102287.94;6036323;23;7128;-74
2024/01/31 05:25:53;;;;;;;;;;;;;;;11.15;58.25;102285.16;6036693;23;7182;-75
2024/01/31 05:28:20;;;;;;;;;;;;;;;11.15;57.99;102282.59;6036548;23;6929;-75
2024/01/31 05:30:46;;;;;;;;;;;;;;;11.15;58.20;102285.16;6029261;23;7391;-74
2024/01/31 05:33:12;;;;;;;;;;;;;;;11.16;58.30;102294.63;6008030;23;7120;-74
2024/01/31 05:35:38;;;;;;;;;;;;;;;11.17;58.42;102293.84;6008630;23;7125;-75
2024/01/31 05:38:04;;;;;;;;;;;;;;;11.18;58.19;102290.50;6007217;23;6981;-75
2024/01/31 05:40:31;;;;;;;;;;;;;;;11.19;58.37;102286.28;6009586;23;6768;-76
2024/01/31 05:42:57;;;;;;;;;;;;;;;11.18;58.24;102290.50;6007256;23;6915;-76
2024/01/31 05:45:24;;;;;;;;;;;;;;;11.18;58.31;102294.75;6005526;23;6779;-74
2024/01/31 05:47:50;;;;;;;;;;;;;;;11.16;58.07;102296.31;6007874;23;7151;-75
2024/01/31 05:50:16;;;;;;;;;;;;;;;11.18;57.98;102295.63;6014563;23;6763;-73
2024/01/31 05:52:42;;;;;;;;;;;;;;;11.18;58.59;102299.91;6030343;23;6946;-74
2024/01/31 05:55:07;;;;;;;;;;;;;;;11.18;58.59;102305.03;6031233;23;6763;-74
2024/01/31 05:57:33;;;;;;;;;;;;;;;11.20;58.30;102306.03;6009835;23;6759;-74
2024/01/31 05:59:59;;;;;;;;;;;;;;;11.23;58.13;102308.81;6056151;23;6945;-74
2024/01/31 06:02:25;;;;;;;;;;;;;;;11.23;58.20;102296.91;6006981;23;6973;-73
2024/01/31 06:04:51;;;;;;;;;;;;;;;11.25;57.99;102297.91;6056267;23;7194;-73
2024/01/31 06:07:18;;;;;;;;;;;;;;;11.24;58.05;102296.13;6031015;23;6956;-76
2024/01/31 06:09:43;;;;;;;;;;;;;;;11.24;57.82;102301.25;6031794;23;6971;-73
2024/01/31 06:12:09;;;;;;;;;;;;;;;11.24;58.43;102301.25;6010244;23;6759;-75
2024/01/31 06:14:37;;;;;;;;;;;;;;;11.23;58.07;102293.44;6031548;23;6976;-72
2024/01/31 06:17:03;;;;;;;;;;;;;;;11.20;58.23;102286.41;6007663;23;6997;-72
2024/01/31 06:19:29;;;;;;;;;;;;;;;11.16;58.19;102284.38;6028608;23;6771;-73
2024/01/31 06:21:55;;;;;;;;;;;;;;;11.14;58.18;102278.25;6007957;23;7183;-72
2024/01/31 06:24:20;;;;;;;;;;;;;;;11.15;58.18;102285.16;6031834;23;6894;-73
2024/01/31 06:26:46;;;;;;;;;;;;;;;11.12;58.18;102279.78;6029134;23;7345;-72
2024/01/31 06:29:17;;;;;;;;;;;;;;;11.11;57.93;102284.03;6030813;23;7156;-73
2024/01/31 06:31:47;;;;;;;;;;;;;;;11.11;58.10;102289.16;6029683;23;7119;-73
2024/01/31 06:34:14;;;;;;;;;;;;;;;11.12;58.34;102295.19;6007366;23;6978;-74
2024/01/31 06:36:40;;;;;;;;;;;;;;;11.11;58.25;102290.84;6007331;23;6804;-75
2024/01/31 06:39:05;;;;;;;;;;;;;;;11.07;58.06;102294.84;6007715;23;7357;-73
2024/01/31 06:41:32;;;;;;;;;;;;;;;11.03;58.44;102292.81;6006558;23;6994;-75
2024/01/31 06:43:57;;;;;;;;;;;;;;;11.04;58.27;102301.41;6007707;23;7011;-73
2024/01/31 06:46:23;;;;;;;;;;;;;;;11.03;58.73;102294.50;6004529;23;6987;-73
2024/01/31 06:48:48;;;;;;;;;;;;;;;11.03;58.86;102294.50;6007295;23;6747;-74
2024/01/31 06:51:14;;;;;;;;;;;;;;;11.03;58.81;102299.63;6032267;23;6938;-73
2024/01/31 06:53:40;;;;;;;;;;;;;;;11.05;58.52;102298.06;6011630;23;6943;-73
2024/01/31 06:56:06;;;;;;;;;;;;;;;11.05;58.45;102306.63;6035546;23;6839;-73
2024/01/31 06:58:33;;;;;;;;;;;;;;;11.04;58.55;102296.28;6058359;23;6962;-73
2024/01/31 07:01:01;;;;;;;;;;;;;;;11.05;58.57;102304.06;6033226;23;6767;-74
2024/01/31 07:03:27;;;;;;;;;;;;;;;11.05;58.78;102311.78;6059526;23;7273;-73
2024/01/31 07:05:53;;;;;;;;;;;;;;;11.06;58.53;102308.47;6035991;23;7141;-75
2024/01/31 07:08:18;;;;;;;;;;;;;;;11.05;58.69;102309.19;6058751;23;6956;-72
2024/01/31 07:10:44;;;;;;;;;;;;;;;11.03;58.40;102303.06;6034374;23;6837;-75
2024/01/31 07:13:09;;;;;;;;;;;;;;;11.03;58.00;102294.50;6034833;23;6920;-72
2024/01/31 07:15:35;;;;;;;;;;;;;;;10.97;58.25;102294.91;6036224;23;6973;-73
2024/01/31 07:18:00;;;;;;;;;;;;;;;10.96;58.45;102303.38;6033429;23;7019;-73
2024/01/31 07:20:26;;;;;;;;;;;;;;;10.93;58.11;102296.34;6033747;23;6918;-72
2024/01/31 07:22:52;;;;;;;;;;;;;;;10.89;58.60;102286.63;6034773;23;6951;-73
2024/01/31 07:25:18;;;;;;;;;;;;;;;10.88;58.24;102300.22;6034861;23;7031;-72
2024/01/31 07:27:44;;;;;;;;;;;;;;;10.85;58.77;102300.00;6037299;23;7224;-73
2024/01/31 07:30:11;;;;;;;;;;;;;;;10.83;58.01;102294.72;6034570;23;6763;-73
2024/01/31 07:32:40;;;;;;;;;;;;;;;10.81;58.47;102293.72;6009500;23;6963;-73
2024/01/31 07:35:07;;;;;;;;;;;;;;;10.85;58.88;102300.00;6031296;23;7195;-74
2024/01/31 07:37:37;;;;;;;;;;;;;;;10.85;58.48;102287.16;6032361;23;7200;-76
2024/01/31 07:40:09;;;;;;;;;;;;;;;10.84;58.70;102277.69;6031681;23;6858;-76
2024/01/31 07:42:36;;;;;;;;;;;;;;;10.87;58.62;102285.59;6031283;23;6775;-76
2024/01/31 07:45:02;;;;;;;;;;;;;;;10.88;58.38;102279.69;6031031;23;6962;-76
2024/01/31 07:47:28;;;;;;;;;;;;;;;10.87;58.62;102283.03;6006946;23;7208;-77
2024/01/31 07:49:54;;;;;;;;;;;;;;;10.85;58.64;102276.91;6029574;23;6767;-76
2024/01/31 07:52:19;;;;;;;;;;;;;;;10.85;58.84;102282.03;6031481;23;6864;-76
2024/01/31 07:54:45;;;;;;;;;;;;;;;10.87;59.15;102290.75;6031204;23;6759;-76
2024/01/31 07:57:10;;;;;;;;;;;;;;;10.89;59.31;102293.44;6030616;23;6954;-76
2024/01/31 07:59:36;;;;;;;;;;;;;;;10.89;59.01;102296.88;6029858;23;6755;-76
2024/01/31 08:02:02;;;;;;;;;;;;;;;10.92;58.85;102303.91;6031112;23;6920;-76
2024/01/31 08:04:27;;;;;;;;;;;;;;;10.95;59.07;102317.88;6029143;23;7019;-76
2024/01/31 08:06:54;;;;;;;;;;;;;;;10.98;58.88;102330.94;6054394;23;6964;-76
2024/01/31 08:09:22;;;;;;;;;;;;;;;11.03;59.51;102331.28;6031725;23;7385;-76
2024/01/31 08:11:48;;;;;;;;;;;;;;;11.09;59.05;102333.44;6031207;23;6914;-76
2024/01/31 08:14:14;;;;;;;;;;;;;;;11.14;59.37;102331.22;6030443;23;6845;-76
2024/01/31 08:16:39;;;;;;;;;;;;;;;11.21;59.67;102336.97;6006227;23;7262;-76
2024/01/31 08:19:05;;;;;;;;;;;;;;;11.26;59.12;102327.03;6030238;23;6823;-76
2024/01/31 08:21:34;;;;;;;;;;;;;;;11.33;59.51;102338.66;6006030;23;7500;-76
2024/01/31 08:23:59;;;;;;;;;;;;;;;11.38;59.32;102339.91;6029578;23;6771;-77
2024/01/31 08:26:25;;;;;;;;;;;;;;;11.40;58.90;102340.94;6030908;23;6934;-77
2024/01/31 08:28:51;;;;;;;;;;;;;;;11.42;58.95;102341.03;6030396;23;6771;-76
2024/01/31 08:31:17;;;;;;;;;;;;;;;11.44;59.32;102344.59;6026225;23;7065;-76
2024/01/31 08:33:44;;;;;;;;;;;;;;;11.46;59.49;102359.34;6031122;23;6953;-76
2024/01/31 08:36:09;;;;;;;;;;;;;;;11.49;58.85;102346.75;6032933;23;6779;-76
2024/01/31 08:38:37;;;;;;;;;;;;;;;11.50;58.96;102340.84;6031550;23;7160;-76
2024/01/31 08:41:04;;;;;;;;;;;;;;;11.50;59.28;102343.41;6033651;23;7345;-76
2024/01/31 08:43:30;;;;;;;;;;;;;;;11.52;59.19;102339.28;6032714;23;7818;-76
2024/01/31 08:45:56;;;;;;;;;;;;;;;11.51;58.80;102332.34;6033591;23;7145;-76
2024/01/31 08:48:21;;;;;;;;;;;;;;;11.51;58.78;102337.50;6051115;23;6993;-75
2024/01/31 08:50:48;;;;;;;;;;;;;;;11.50;59.47;102335.72;6061559;23;7002;-75
2024/01/31 08:53:13;;;;;;;;;;;;;;;11.53;59.35;102343.63;6061339;23;6822;-75
2024/01/31 08:55:39;;;;;;;;;;;;;;;11.58;58.88;102355.91;6061053;23;6898;-75
2024/01/31 08:58:05;;;;;;;;;;;;;;;11.60;59.24;102350.13;6060804;23;6966;-75
2024/01/31 09:00:30;;;;;;;;;;;;;;;11.63;59.85;102354.59;6085172;23;6994;-75
2024/01/31 09:02:56;;;;;;;;;;;;;;;11.66;59.41;102347.13;6062106;23;7100;-76
2024/01/31 09:05:22;;;;;;;;;;;;;;;11.70;59.46;102343.09;6060835;23;6935;-75
2024/01/31 09:07:48;;;;;;;;;;;;;;;11.72;58.91;102337.31;6059975;23;6750;-75
2024/01/31 09:10:14;;;;;;;;;;;;;;;11.76;58.92;102336.75;6061942;23;7233;-75
2024/01/31 09:12:39;;;;;;;;;;;;;;;11.81;59.48;102331.94;6086179;23;6995;-75
2024/01/31 09:15:05;;;;;;;;;;;;;;;11.87;59.30;102336.63;6062203;23;6751;-75
2024/01/31 09:17:31;;;;;;;;;;;;;;;11.93;59.10;102337.09;6061196;23;6943;-75
2024/01/31 09:19:57;;;;;;;;;;;;;;;11.99;59.23;102339.22;6063162;23;6907;-75
2024/01/31 09:22:24;;;;;;;;;;;;;;;12.04;59.21;102345.63;6032191;23;7134;-75
2024/01/31 09:24:50;;;;;;;;;;;;;;;12.10;59.12;102337.47;6032756;23;7099;-75
2024/01/31 09:27:19;;;;;;;;;;;;;;;12.15;58.48;102341.25;6056078;23;6931;-75
2024/01/31 09:29:48;;;;;;;;;;;;;;;12.19;58.81;102345.88;6032224;23;6767;-75
2024/01/31 09:32:14;;;;;;;;;;;;;;;12.25;59.29;102345.41;6031727;23;6978;-75
2024/01/31 09:34:41;;;;;;;;;;;;;;;12.30;58.91;102344.94;6032851;23;7182;-75
2024/01/31 09:37:07;;;;;;;;;;;;;;;12.33;58.28;102331.44;6056715;23;7018;-75
2024/01/31 09:39:32;;;;;;;;;;;;;;;12.40;59.17;102333.63;6032146;23;7147;-75
2024/01/31 09:41:59;;;;;;;;;;;;;;;12.44;58.56;102327.03;6032781;23;6998;-75
2024/01/31 09:44:25;;;;;;;;;;;;;;;12.47;58.58;102323.00;6032419;23;7155;-75
2024/01/31 09:46:53;;;;;;;;;;;;;;;12.50;57.79;102314.63;6008874;23;6952;-76
2024/01/31 09:49:18;;;;;;;;;;;;;;;12.51;57.68;102311.25;6032207;23;6771;-75
2024/01/31 09:51:44;;;;;;;;;;;;;;;12.52;58.01;102305.31;6033610;23;6819;-75
2024/01/31 09:54:10;;;;;;;;;;;;;;;12.55;57.76;102309.81;6032032;23;6826;-76
2024/01/31 09:56:36;;;;;;;;;;;;;;;12.54;56.86;102301.19;6033345;23;6894;-75
2024/01/31 09:59:03;;;;;;;;;;;;;;;12.54;56.77;102292.59;6055371;23;6755;-76
2024/01/31 10:01:29;;;;;;;;;;;;;;;12.55;56.75;102284.97;6005592;23;7141;-76
2024/01/31 10:03:58;;;;;;;;;;;;;;;12.58;56.30;102290.34;6031133;23;7223;-75
2024/01/31 10:06:25;;;;;;;;;;;;;;;12.58;57.06;102292.91;6004042;23;7232;-75
2024/01/31 10:08:51;;;;;;;;;;;;;;;12.61;56.78;102289.66;6052194;23;7109;-75
2024/01/31 10:11:17;;;;;;;;;;;;;;;12.65;56.22;102283.94;6006237;23;6938;-76
2024/01/31 10:13:42;;;;;;;;;;;;;;;12.65;56.41;102286.50;6024138;23;6763;-75
2024/01/31 10:16:08;;;;;;;;;;;;;;;12.68;55.71;102285.84;6051744;23;6932;-76
2024/01/31 10:18:33;;;;;;;;;;;;;;;12.68;55.86;102288.41;6025426;23;7165;-75
2024/01/31 10:20:59;;;;;;;;;;;;;;;12.71;56.44;102286.03;6004740;23;6934;-76
2024/01/31 10:23:25;;;;;;;;;;;;;;;12.72;55.45;102278.44;6026487;23;6767;-75
2024/01/31 10:25:51;;;;;;;;;;;;;;;12.73;55.57;102279.31;6052827;23;6806;-75
2024/01/31 10:28:20;;;;;;;;;;;;;;;12.77;56.38;102277.06;6003280;23;6964;-76
2024/01/31 10:30:47;;;;;;;;;;;;;;;12.83;55.96;102276.59;6026736;23;6935;-75
2024/01/31 10:33:14;;;;;;;;;;;;;;;12.87;55.52;102268.31;6028575;23;7718;-75
2024/01/31 10:35:43;;;;;;;;;;;;;;;12.89;55.66;102256.44;6027311;23;6909;-77
2024/01/31 10:38:12;;;;;;;;;;;;;;;12.90;55.17;102253.06;6074592;23;7048;-76
2024/01/31 10:40:41;;;;;;;;;;;;;;;12.91;54.89;102247.13;6027640;23;6783;-75
2024/01/31 10:43:10;;;;;;;;;;;;;;;12.92;54.35;102230.91;6100237;23;6951;-87
2024/01/31 10:45:36;;;;;;;;;;;;;;;12.90;54.02;102226.47;6090802;23;6954;-77
2024/01/31 10:48:03;;;;;;;;;;;;;;;12.86;54.55;102212.50;6059004;23;6759;-77
2024/01/31 10:50:30;;;;;;;;;;;;;;;12.84;54.43;102208.00;6058912;23;6763;-77
2024/01/31 10:52:59;;;;;;;;;;;;;;;12.84;53.70;102208.88;6058303;23;6874;-77
2024/01/31 10:55:27;;;;;;;;;;;;;;;12.86;53.81;102217.63;6057844;23;6844;-77
2024/01/31 10:57:54;;;;;;;;;;;;;;;12.90;54.05;102214.47;6057927;23;6787;-77
2024/01/31 11:00:28;;;;;;;;;;;;;;;12.97;54.23;102209.75;6059880;23;6759;-76
2024/01/31 11:03:00;;;;;;;;;;;;;;;12.98;53.33;102214.97;6086667;23;6922;-77
2024/01/31 11:05:30;;;;;;;;;;;;;;;13.00;52.67;102217.66;6086892;23;6918;-77
2024/01/31 11:07:56;;;;;;;;;;;;;;;13.00;53.36;102218.56;6073825;23;6778;-77
2024/01/31 11:10:22;;;;;;;;;;;;;;;12.99;53.25;102221.03;6060435;23;6759;-78
2024/01/31 11:13:02;;;;;;;;;;;;;;;12.97;52.54;102220.03;6060215;23;6919;-77
2024/01/31 11:15:30;;;;;;;;;;;;;;;12.94;51.76;102222.38;6036218;23;6978;-77
2024/01/31 11:18:10;;;;;;;;;;;;;;;12.90;51.76;102216.16;6059465;23;6965;-77
2024/01/31 11:20:40;;;;;;;;;;;;;;;12.86;51.27;102220.22;6035730;23;6968;-77
2024/01/31 11:23:06;;;;;;;;;;;;;;;12.82;50.77;102213.03;6058951;23;7045;-77
2024/01/31 11:25:35;;;;;;;;;;;;;;;12.77;51.32;102210.16;6035408;23;7081;-77
2024/01/31 11:28:05;;;;;;;;;;;;;;;12.72;51.10;102211.56;6060610;23;8585;-77
2024/01/31 11:30:32;;;;;;;;;;;;;;;12.70;50.37;102219.94;6082801;23;6779;-77
2024/01/31 11:33:01;;;;;;;;;;;;;;;12.68;50.30;102218.94;6035926;23;6971;-77
2024/01/31 11:35:28;;;;;;;;;;;;;;;12.69;50.92;102223.31;6035137;23;7002;-77
2024/01/31 11:38:01;;;;;;;;;;;;;;;12.69;50.02;102220.72;6083478;23;6988;-77
2024/01/31 11:40:28;;;;;;;;;;;;;;;12.68;49.69;102216.38;6036061;23;7416;-77
2024/01/31 11:42:56;;;;;;;;;;;;;;;12.67;49.83;102228.34;6060270;23;6767;-77
2024/01/31 11:45:25;;;;;;;;;;;;;;;12.63;49.35;102219.50;6059248;23;7017;-77
2024/01/31 11:47:53;;;;;;;;;;;;;;;12.63;49.22;102222.09;6059537;23;8020;-77
2024/01/31 11:50:19;;;;;;;;;;;;;;;12.61;49.97;102228.81;6034841;23;6945;-77
2024/01/31 11:52:46;;;;;;;;;;;;;;;12.60;49.60;102209.03;6059307;23;6754;-77
2024/01/31 11:55:12;;;;;;;;;;;;;;;12.56;49.41;102204.47;6035510;23;6952;-77
2024/01/31 11:57:38;;;;;;;;;;;;;;;12.54;49.16;102195.72;6059439;23;6759;-78
2024/01/31 12:00:05;;;;;;;;;;;;;;;12.51;49.54;102205.81;6060001;23;6774;-78
2024/01/31 12:02:32;;;;;;;;;;;;;;;12.48;48.84;102197.91;6058813;23;6771;-77
2024/01/31 12:04:58;;;;;;;;;;;;;;;12.48;49.20;102193.63;6060298;23;6931;-77
2024/01/31 12:07:24;;;;;;;;;;;;;;;12.49;49.68;102184.25;6059715;23;6990;-77
2024/01/31 12:09:50;;;;;;;;;;;;;;;12.48;49.19;102179.91;6061012;23;6851;-78
2024/01/31 12:12:16;;;;;;;;;;;;;;;12.45;48.96;102183.16;6039347;23;6980;-77
2024/01/31 12:14:42;;;;;;;;;;;;;;;12.44;48.68;102188.16;6061408;23;6962;-77
2024/01/31 12:17:25;;;;;;;;;;;;;;;12.42;48.00;102185.50;6041318;23;6952;-77
2024/01/31 12:20:12;;;;;;;;;;;;;;;12.44;49.00;102177.88;6079723;23;6783;-77
2024/01/31 12:22:39;;;;;;;;;;;;;;;12.45;48.86;102169.38;6080773;23;6771;-77
2024/01/31 12:25:05;;;;;;;;;;;;;;;12.49;48.25;102163.69;6080908;23;6771;-77
2024/01/31 12:27:32;;;;;;;;;;;;;;;12.51;48.41;102159.53;6079201;23;6966;-77
2024/01/31 12:29:58;;;;;;;;;;;;;;;12.53;48.03;102160.50;6078749;23;6906;-78
2024/01/31 12:32:25;;;;;;;;;;;;;;;12.53;48.18;102155.38;6067123;23;7198;-78
2024/01/31 12:34:50;;;;;;;;;;;;;;;12.53;48.26;102150.22;6078857;23;6903;-77
2024/01/31 12:37:16;;;;;;;;;;;;;;;12.55;47.73;102140.06;6079883;23;7216;-78
2024/01/31 12:39:42;;;;;;;;;;;;;;;12.55;47.65;102124.63;6078893;23;6831;-77
2024/01/31 12:42:08;;;;;;;;;;;;;;;12.52;47.54;102120.16;6079360;23;6945;-77
2024/01/31 12:44:34;;;;;;;;;;;;;;;12.55;47.53;102116.91;6055183;23;6818;-77
2024/01/31 12:47:05;;;;;;;;;;;;;;;12.55;47.89;102115.19;6079647;23;6946;-77
2024/01/31 12:49:43;;;;;;;;;;;;;;;12.57;48.08;102110.16;6079865;23;6964;-77
2024/01/31 12:52:09;;;;;;;;;;;;;;;12.55;47.87;102101.47;6080565;23;6791;-77